sensor_id;sensor_type;location;lat;lon;timestamp;temperature;humidity
3348;DHT22;1687;49.540;8.574;2023-08-12T00:01:35;24.20;61.70
3348;DHT22;1687;49.540;8.574;2023-08-12T00:04:01;24.20;61.90
3348;DHT22;1687;49.540;8.574;2023-08-12T00:06:26;24.20;62.00
3348;DHT22;1687;49.540;8.574;2023-08-12T00:08:53;24.30;62.20
3348;DHT22;1687;49.540;8.574;2023-08-12T00:11:19;24.30;62.20
3348;DHT22;1687;49.540;8.574;2023-08-12T00:13:44;24.30;62.20
3348;DHT22;1687;49.540;8.574;2023-08-12T00:16:10;24.30;62.30
3348;DHT22;1687;49.540;8.574;2023-08-12T00:18:36;24.30;62.40
3348;DHT22;1687;49.540;8.574;2023-08-12T00:21:08;24.20;62.50
3348;DHT22;1687;49.540;8.574;2023-08-12T00:23:39;24.30;62.50
3348;DHT22;1687;49.540;8.574;2023-08-12T00:26:09;24.20;62.50
3348;DHT22;1687;49.540;8.574;2023-08-12T00:28:35;24.20;62.60
3348;DHT22;1687;49.540;8.574;2023-08-12T00:31:01;24.20;62.70
3348;DHT22;1687;49.540;8.574;2023-08-12T00:33:27;24.20;62.80
3348;DHT22;1687;49.540;8.574;2023-08-12T00:35:53;24.20;62.90
3348;DHT22;1687;49.540;8.574;2023-08-12T00:38:19;24.20;63.00
3348;DHT22;1687;49.540;8.574;2023-08-12T00:40:44;24.20;63.00
3348;DHT22;1687;49.540;8.574;2023-08-12T00:43:10;24.30;63.20
3348;DHT22;1687;49.540;8.574;2023-08-12T00:45:36;24.30;63.30
3348;DHT22;1687;49.540;8.574;2023-08-12T00:48:03;24.30;63.20
3348;DHT22;1687;49.540;8.574;2023-08-12T00:50:29;24.20;63.20
3348;DHT22;1687;49.540;8.574;2023-08-12T00:52:55;24.20;63.40
3348;DHT22;1687;49.540;8.574;2023-08-12T00:55:21;24.20;63.40
3348;DHT22;1687;49.540;8.574;2023-08-12T00:57:47;24.30;63.50
3348;DHT22;1687;49.540;8.574;2023-08-12T01:00:14;24.30;63.50
3348;DHT22;1687;49.540;8.574;2023-08-12T01:02:42;24.30;63.40
3348;DHT22;1687;49.540;8.574;2023-08-12T01:05:13;24.30;63.40
3348;DHT22;1687;49.540;8.574;2023-08-12T01:07:40;24.20;63.40
3348;DHT22;1687;49.540;8.574;2023-08-12T01:10:07;24.10;63.40
3348;DHT22;1687;49.540;8.574;2023-08-12T01:16:21;24.10;63.70
3348;DHT22;1687;49.540;8.574;2023-08-12T01:18:49;24.10;63.70
3348;DHT22;1687;49.540;8.574;2023-08-12T01:21:16;24.10;63.70
3348;DHT22;1687;49.540;8.574;2023-08-12T01:23:43;24.00;63.70
3348;DHT22;1687;49.540;8.574;2023-08-12T01:26:10;23.80;63.70
3348;DHT22;1687;49.540;8.574;2023-08-12T01:28:35;23.70;63.80
3348;DHT22;1687;49.540;8.574;2023-08-12T01:31:30;23.60;63.90
3348;DHT22;1687;49.540;8.574;2023-08-12T01:36:58;23.60;64.50
3348;DHT22;1687;49.540;8.574;2023-08-12T01:39:26;23.50;64.70
3348;DHT22;1687;49.540;8.574;2023-08-12T01:41:52;23.50;64.80
3348;DHT22;1687;49.540;8.574;2023-08-12T01:44:19;23.50;65.20
3348;DHT22;1687;49.540;8.574;2023-08-12T01:46:44;23.40;65.10
3348;DHT22;1687;49.540;8.574;2023-08-12T01:49:10;23.30;65.30
3348;DHT22;1687;49.540;8.574;2023-08-12T01:51:36;23.30;65.50
3348;DHT22;1687;49.540;8.574;2023-08-12T01:54:01;23.40;65.80
3348;DHT22;1687;49.540;8.574;2023-08-12T01:56:28;23.40;65.90
3348;DHT22;1687;49.540;8.574;2023-08-12T01:58:53;23.50;66.00
3348;DHT22;1687;49.540;8.574;2023-08-12T02:01:19;23.50;66.10
3348;DHT22;1687;49.540;8.574;2023-08-12T02:03:45;23.60;66.30
3348;DHT22;1687;49.540;8.574;2023-08-12T02:06:10;23.60;66.30
3348;DHT22;1687;49.540;8.574;2023-08-12T02:08:37;23.70;66.40
3348;DHT22;1687;49.540;8.574;2023-08-12T02:11:03;23.80;66.40
3348;DHT22;1687;49.540;8.574;2023-08-12T02:13:29;23.80;66.40
3348;DHT22;1687;49.540;8.574;2023-08-12T02:15:55;23.80;66.50
3348;DHT22;1687;49.540;8.574;2023-08-12T02:18:21;23.90;66.60
3348;DHT22;1687;49.540;8.574;2023-08-12T02:20:47;23.90;66.60
3348;DHT22;1687;49.540;8.574;2023-08-12T02:23:14;23.90;66.60
3348;DHT22;1687;49.540;8.574;2023-08-12T02:25:39;24.00;66.70
3348;DHT22;1687;49.540;8.574;2023-08-12T02:28:05;24.00;66.80
3348;DHT22;1687;49.540;8.574;2023-08-12T02:30:31;24.00;66.80
3348;DHT22;1687;49.540;8.574;2023-08-12T02:32:56;24.00;66.80
3348;DHT22;1687;49.540;8.574;2023-08-12T02:35:22;24.00;66.70
3348;DHT22;1687;49.540;8.574;2023-08-12T02:37:48;24.00;67.70
3348;DHT22;1687;49.540;8.574;2023-08-12T02:40:14;24.00;67.00
3348;DHT22;1687;49.540;8.574;2023-08-12T02:42:40;24.00;66.90
3348;DHT22;1687;49.540;8.574;2023-08-12T02:45:06;23.90;66.80
3348;DHT22;1687;49.540;8.574;2023-08-12T02:47:32;23.70;66.90
3348;DHT22;1687;49.540;8.574;2023-08-12T02:49:57;23.70;67.20
3348;DHT22;1687;49.540;8.574;2023-08-12T02:52:23;23.70;67.40
3348;DHT22;1687;49.540;8.574;2023-08-12T02:54:49;23.70;67.40
3348;DHT22;1687;49.540;8.574;2023-08-12T02:57:15;23.60;67.20
3348;DHT22;1687;49.540;8.574;2023-08-12T02:59:40;23.60;68.30
3348;DHT22;1687;49.540;8.574;2023-08-12T03:02:06;23.40;67.40
3348;DHT22;1687;49.540;8.574;2023-08-12T03:04:32;23.40;68.00
3348;DHT22;1687;49.540;8.574;2023-08-12T03:06:57;23.30;68.10
3348;DHT22;1687;49.540;8.574;2023-08-12T03:09:23;23.20;68.20
3348;DHT22;1687;49.540;8.574;2023-08-12T03:11:49;23.20;68.50
3348;DHT22;1687;49.540;8.574;2023-08-12T03:14:15;23.20;68.40
3348;DHT22;1687;49.540;8.574;2023-08-12T03:16:40;23.20;68.80
3348;DHT22;1687;49.540;8.574;2023-08-12T03:19:06;23.20;68.80
3348;DHT22;1687;49.540;8.574;2023-08-12T03:21:32;23.10;68.70
3348;DHT22;1687;49.540;8.574;2023-08-12T03:23:57;23.10;69.00
3348;DHT22;1687;49.540;8.574;2023-08-12T03:26:23;23.00;69.10
3348;DHT22;1687;49.540;8.574;2023-08-12T03:28:49;23.00;69.30
3348;DHT22;1687;49.540;8.574;2023-08-12T03:31:14;23.00;69.40
3348;DHT22;1687;49.540;8.574;2023-08-12T03:33:40;23.00;69.70
3348;DHT22;1687;49.540;8.574;2023-08-12T03:36:06;23.10;69.90
3348;DHT22;1687;49.540;8.574;2023-08-12T03:38:32;23.10;70.00
3348;DHT22;1687;49.540;8.574;2023-08-12T03:40:58;23.10;69.80
3348;DHT22;1687;49.540;8.574;2023-08-12T03:43:23;23.20;70.20
3348;DHT22;1687;49.540;8.574;2023-08-12T03:45:49;23.20;70.20
3348;DHT22;1687;49.540;8.574;2023-08-12T03:48:15;23.20;70.30
3348;DHT22;1687;49.540;8.574;2023-08-12T03:50:41;23.20;70.20
3348;DHT22;1687;49.540;8.574;2023-08-12T03:53:07;23.30;70.40
3348;DHT22;1687;49.540;8.574;2023-08-12T03:55:34;23.30;70.40
3348;DHT22;1687;49.540;8.574;2023-08-12T03:58:00;23.30;70.30
3348;DHT22;1687;49.540;8.574;2023-08-12T04:00:26;23.30;70.50
3348;DHT22;1687;49.540;8.574;2023-08-12T04:02:52;23.20;70.50
3348;DHT22;1687;49.540;8.574;2023-08-12T04:05:18;23.30;70.70
3348;DHT22;1687;49.540;8.574;2023-08-12T04:07:44;23.30;70.70
3348;DHT22;1687;49.540;8.574;2023-08-12T04:10:10;23.30;70.70
3348;DHT22;1687;49.540;8.574;2023-08-12T04:12:35;23.30;70.80
3348;DHT22;1687;49.540;8.574;2023-08-12T04:15:01;23.30;70.90
3348;DHT22;1687;49.540;8.574;2023-08-12T04:17:30;23.30;70.90
3348;DHT22;1687;49.540;8.574;2023-08-12T04:19:56;23.40;71.80
3348;DHT22;1687;49.540;8.574;2023-08-12T04:22:21;23.30;71.00
3348;DHT22;1687;49.540;8.574;2023-08-12T04:24:47;23.30;70.90
3348;DHT22;1687;49.540;8.574;2023-08-12T04:27:12;23.30;71.10
3348;DHT22;1687;49.540;8.574;2023-08-12T04:29:38;23.40;71.30
3348;DHT22;1687;49.540;8.574;2023-08-12T04:32:04;23.40;71.30
3348;DHT22;1687;49.540;8.574;2023-08-12T04:34:30;23.30;71.20
3348;DHT22;1687;49.540;8.574;2023-08-12T04:36:56;23.30;71.20
3348;DHT22;1687;49.540;8.574;2023-08-12T04:39:21;23.30;71.10
3348;DHT22;1687;49.540;8.574;2023-08-12T04:41:47;23.20;71.00
3348;DHT22;1687;49.540;8.574;2023-08-12T04:44:13;23.10;71.30
3348;DHT22;1687;49.540;8.574;2023-08-12T04:46:39;23.10;71.40
3348;DHT22;1687;49.540;8.574;2023-08-12T04:49:04;23.00;71.50
3348;DHT22;1687;49.540;8.574;2023-08-12T04:51:30;23.00;71.60
3348;DHT22;1687;49.540;8.574;2023-08-12T04:53:56;23.10;71.90
3348;DHT22;1687;49.540;8.574;2023-08-12T04:56:23;23.10;71.80
3348;DHT22;1687;49.540;8.574;2023-08-12T04:58:49;23.10;71.90
3348;DHT22;1687;49.540;8.574;2023-08-12T05:01:15;23.10;72.10
3348;DHT22;1687;49.540;8.574;2023-08-12T05:03:40;23.20;72.00
3348;DHT22;1687;49.540;8.574;2023-08-12T05:06:06;23.20;72.20
3348;DHT22;1687;49.540;8.574;2023-08-12T05:08:32;23.20;72.10
3348;DHT22;1687;49.540;8.574;2023-08-12T05:10:58;23.20;72.30
3348;DHT22;1687;49.540;8.574;2023-08-12T05:13:23;23.20;72.00
3348;DHT22;1687;49.540;8.574;2023-08-12T05:15:49;23.20;72.20
3348;DHT22;1687;49.540;8.574;2023-08-12T05:18:15;23.10;72.10
3348;DHT22;1687;49.540;8.574;2023-08-12T05:20:42;23.10;72.50
3348;DHT22;1687;49.540;8.574;2023-08-12T05:23:08;23.20;72.70
3348;DHT22;1687;49.540;8.574;2023-08-12T05:25:34;23.20;72.60
3348;DHT22;1687;49.540;8.574;2023-08-12T05:28:00;23.20;72.70
3348;DHT22;1687;49.540;8.574;2023-08-12T05:30:26;23.30;72.90
3348;DHT22;1687;49.540;8.574;2023-08-12T05:32:51;23.20;72.40
3348;DHT22;1687;49.540;8.574;2023-08-12T05:35:17;23.20;72.60
3348;DHT22;1687;49.540;8.574;2023-08-12T05:37:43;23.20;72.90
3348;DHT22;1687;49.540;8.574;2023-08-12T05:40:09;23.20;72.80
3348;DHT22;1687;49.540;8.574;2023-08-12T05:42:35;23.20;72.80
3348;DHT22;1687;49.540;8.574;2023-08-12T05:45:02;23.20;73.00
3348;DHT22;1687;49.540;8.574;2023-08-12T05:47:28;23.10;73.00
3348;DHT22;1687;49.540;8.574;2023-08-12T05:49:54;23.20;73.30
3348;DHT22;1687;49.540;8.574;2023-08-12T05:52:19;23.30;73.50
3348;DHT22;1687;49.540;8.574;2023-08-12T05:54:45;23.30;73.30
3348;DHT22;1687;49.540;8.574;2023-08-12T05:57:11;23.30;73.60
3348;DHT22;1687;49.540;8.574;2023-08-12T05:59:36;23.40;73.70
3348;DHT22;1687;49.540;8.574;2023-08-12T06:02:02;23.40;73.70
3348;DHT22;1687;49.540;8.574;2023-08-12T06:04:29;23.40;73.40
3348;DHT22;1687;49.540;8.574;2023-08-12T06:06:55;23.30;73.30
3348;DHT22;1687;49.540;8.574;2023-08-12T06:09:21;23.30;73.50
3348;DHT22;1687;49.540;8.574;2023-08-12T06:11:47;23.50;73.80
3348;DHT22;1687;49.540;8.574;2023-08-12T06:14:12;23.60;73.80
3348;DHT22;1687;49.540;8.574;2023-08-12T06:16:38;23.60;73.70
3348;DHT22;1687;49.540;8.574;2023-08-12T06:19:04;23.70;73.90
3348;DHT22;1687;49.540;8.574;2023-08-12T06:21:29;23.90;74.10
3348;DHT22;1687;49.540;8.574;2023-08-12T06:23:55;24.10;74.30
3348;DHT22;1687;49.540;8.574;2023-08-12T06:26:21;24.30;74.40
3348;DHT22;1687;49.540;8.574;2023-08-12T06:28:47;24.40;74.20
3348;DHT22;1687;49.540;8.574;2023-08-12T06:31:13;24.50;73.90
3348;DHT22;1687;49.540;8.574;2023-08-12T06:33:38;24.60;74.20
3348;DHT22;1687;49.540;8.574;2023-08-12T06:36:04;24.60;73.90
3348;DHT22;1687;49.540;8.574;2023-08-12T06:38:31;24.70;74.00
3348;DHT22;1687;49.540;8.574;2023-08-12T06:40:56;24.80;74.10
3348;DHT22;1687;49.540;8.574;2023-08-12T06:43:22;24.90;74.10
3348;DHT22;1687;49.540;8.574;2023-08-12T06:45:47;25.00;73.80
3348;DHT22;1687;49.540;8.574;2023-08-12T06:48:13;25.10;73.60
3348;DHT22;1687;49.540;8.574;2023-08-12T06:50:39;25.10;73.60
3348;DHT22;1687;49.540;8.574;2023-08-12T06:53:04;25.20;73.50
3348;DHT22;1687;49.540;8.574;2023-08-12T06:55:30;25.20;73.40
3348;DHT22;1687;49.540;8.574;2023-08-12T06:57:56;25.20;73.30
3348;DHT22;1687;49.540;8.574;2023-08-12T07:00:22;25.30;73.30
3348;DHT22;1687;49.540;8.574;2023-08-12T07:02:47;25.50;73.30
3348;DHT22;1687;49.540;8.574;2023-08-12T07:05:13;25.50;73.00
3348;DHT22;1687;49.540;8.574;2023-08-12T07:07:39;25.60;73.00
3348;DHT22;1687;49.540;8.574;2023-08-12T07:10:05;25.70;73.10
3348;DHT22;1687;49.540;8.574;2023-08-12T07:12:31;25.90;72.90
3348;DHT22;1687;49.540;8.574;2023-08-12T07:14:58;25.90;72.70
3348;DHT22;1687;49.540;8.574;2023-08-12T07:17:24;25.90;72.60
3348;DHT22;1687;49.540;8.574;2023-08-12T07:19:49;25.90;72.50
3348;DHT22;1687;49.540;8.574;2023-08-12T07:22:15;25.80;72.20
3348;DHT22;1687;49.540;8.574;2023-08-12T07:24:45;25.80;72.50
3348;DHT22;1687;49.540;8.574;2023-08-12T07:27:10;25.80;72.30
3348;DHT22;1687;49.540;8.574;2023-08-12T07:29:36;25.90;72.30
3348;DHT22;1687;49.540;8.574;2023-08-12T07:32:02;25.90;72.30
3348;DHT22;1687;49.540;8.574;2023-08-12T07:34:27;26.00;72.40
3348;DHT22;1687;49.540;8.574;2023-08-12T07:36:53;26.10;72.20
3348;DHT22;1687;49.540;8.574;2023-08-12T07:39:19;26.10;72.30
3348;DHT22;1687;49.540;8.574;2023-08-12T07:41:44;26.20;72.10
3348;DHT22;1687;49.540;8.574;2023-08-12T07:44:10;26.10;72.20
3348;DHT22;1687;49.540;8.574;2023-08-12T07:46:36;26.20;72.40
3348;DHT22;1687;49.540;8.574;2023-08-12T07:49:01;26.30;72.30
3348;DHT22;1687;49.540;8.574;2023-08-12T07:51:27;26.40;72.40
3348;DHT22;1687;49.540;8.574;2023-08-12T07:53:53;26.40;72.50
3348;DHT22;1687;49.540;8.574;2023-08-12T07:56:18;26.50;72.40
3348;DHT22;1687;49.540;8.574;2023-08-12T07:58:44;26.60;72.50
3348;DHT22;1687;49.540;8.574;2023-08-12T08:01:11;26.70;72.50
3348;DHT22;1687;49.540;8.574;2023-08-12T08:03:37;26.60;71.70
3348;DHT22;1687;49.540;8.574;2023-08-12T08:06:02;26.50;71.90
3348;DHT22;1687;49.540;8.574;2023-08-12T08:08:28;26.40;71.50
3348;DHT22;1687;49.540;8.574;2023-08-12T08:10:54;26.40;72.20
3348;DHT22;1687;49.540;8.574;2023-08-12T08:13:19;26.70;72.40
3348;DHT22;1687;49.540;8.574;2023-08-12T08:15:45;27.00;72.10
3348;DHT22;1687;49.540;8.574;2023-08-12T08:18:11;27.30;72.00
3348;DHT22;1687;49.540;8.574;2023-08-12T08:20:37;27.40;71.20
3348;DHT22;1687;49.540;8.574;2023-08-12T08:23:02;27.40;71.40
3348;DHT22;1687;49.540;8.574;2023-08-12T08:25:28;27.50;71.40
3348;DHT22;1687;49.540;8.574;2023-08-12T08:27:54;27.60;71.10
3348;DHT22;1687;49.540;8.574;2023-08-12T08:30:20;27.70;70.80
3348;DHT22;1687;49.540;8.574;2023-08-12T08:32:45;28.00;71.00
3348;DHT22;1687;49.540;8.574;2023-08-12T08:35:12;28.20;70.60
3348;DHT22;1687;49.540;8.574;2023-08-12T08:37:37;28.30;70.10
3348;DHT22;1687;49.540;8.574;2023-08-12T08:40:03;28.30;69.70
3348;DHT22;1687;49.540;8.574;2023-08-12T08:42:31;28.40;70.00
3348;DHT22;1687;49.540;8.574;2023-08-12T08:45:00;28.60;69.70
3348;DHT22;1687;49.540;8.574;2023-08-12T08:47:29;28.50;69.20
3348;DHT22;1687;49.540;8.574;2023-08-12T08:49:57;28.40;69.00
3348;DHT22;1687;49.540;8.574;2023-08-12T08:52:26;28.40;69.20
3348;DHT22;1687;49.540;8.574;2023-08-12T08:54:51;28.60;69.40
3348;DHT22;1687;49.540;8.574;2023-08-12T08:57:18;28.80;68.80
3348;DHT22;1687;49.540;8.574;2023-08-12T08:59:45;29.00;69.10
3348;DHT22;1687;49.540;8.574;2023-08-12T09:02:16;29.10;69.60
3348;DHT22;1687;49.540;8.574;2023-08-12T09:04:46;29.20;68.80
3348;DHT22;1687;49.540;8.574;2023-08-12T09:07:12;29.30;68.30
3348;DHT22;1687;49.540;8.574;2023-08-12T09:09:41;29.40;68.30
3348;DHT22;1687;49.540;8.574;2023-08-12T09:12:13;29.50;67.50
3348;DHT22;1687;49.540;8.574;2023-08-12T09:14:40;29.60;67.60
3348;DHT22;1687;49.540;8.574;2023-08-12T09:17:06;29.70;67.70
3348;DHT22;1687;49.540;8.574;2023-08-12T09:19:32;29.90;67.30
3348;DHT22;1687;49.540;8.574;2023-08-12T09:21:58;30.00;66.60
3348;DHT22;1687;49.540;8.574;2023-08-12T09:24:27;29.80;66.20
3348;DHT22;1687;49.540;8.574;2023-08-12T09:26:54;29.60;66.20
3348;DHT22;1687;49.540;8.574;2023-08-12T09:29:30;29.50;66.40
3348;DHT22;1687;49.540;8.574;2023-08-12T09:32:13;29.70;66.30
3348;DHT22;1687;49.540;8.574;2023-08-12T09:34:51;29.90;66.00
3348;DHT22;1687;49.540;8.574;2023-08-12T09:37:22;30.00;66.00
3348;DHT22;1687;49.540;8.574;2023-08-12T09:39:50;30.00;65.30
3348;DHT22;1687;49.540;8.574;2023-08-12T09:42:17;29.90;65.20
3348;DHT22;1687;49.540;8.574;2023-08-12T09:44:44;29.70;65.00
3348;DHT22;1687;49.540;8.574;2023-08-12T09:47:10;29.70;65.20
3348;DHT22;1687;49.540;8.574;2023-08-12T09:49:36;29.80;65.30
3348;DHT22;1687;49.540;8.574;2023-08-12T09:52:04;30.00;65.30
3348;DHT22;1687;49.540;8.574;2023-08-12T09:54:31;30.20;64.90
3348;DHT22;1687;49.540;8.574;2023-08-12T09:56:59;30.20;64.70
3348;DHT22;1687;49.540;8.574;2023-08-12T09:59:29;30.30;64.10
3348;DHT22;1687;49.540;8.574;2023-08-12T10:01:57;30.30;64.10
3348;DHT22;1687;49.540;8.574;2023-08-12T10:04:27;30.20;63.80
3348;DHT22;1687;49.540;8.574;2023-08-12T10:06:54;30.10;63.70
3348;DHT22;1687;49.540;8.574;2023-08-12T10:09:20;30.10;63.80
3348;DHT22;1687;49.540;8.574;2023-08-12T10:11:46;30.20;63.80
3348;DHT22;1687;49.540;8.574;2023-08-12T10:14:13;30.40;63.50
3348;DHT22;1687;49.540;8.574;2023-08-12T10:16:42;30.50;63.20
3348;DHT22;1687;49.540;8.574;2023-08-12T10:19:12;30.50;63.10
3348;DHT22;1687;49.540;8.574;2023-08-12T10:21:38;30.50;62.80
3348;DHT22;1687;49.540;8.574;2023-08-12T10:24:05;30.40;62.90
3348;DHT22;1687;49.540;8.574;2023-08-12T10:26:32;30.30;62.50
3348;DHT22;1687;49.540;8.574;2023-08-12T10:28:59;30.30;63.00
3348;DHT22;1687;49.540;8.574;2023-08-12T10:31:28;30.20;62.40
3348;DHT22;1687;49.540;8.574;2023-08-12T10:33:56;30.20;62.80
3348;DHT22;1687;49.540;8.574;2023-08-12T10:36:22;30.40;62.70
3348;DHT22;1687;49.540;8.574;2023-08-12T10:38:50;30.40;63.00
3348;DHT22;1687;49.540;8.574;2023-08-12T10:41:23;30.40;62.80
3348;DHT22;1687;49.540;8.574;2023-08-12T10:43:54;30.40;62.40
3348;DHT22;1687;49.540;8.574;2023-08-12T10:46:30;30.20;62.70
3348;DHT22;1687;49.540;8.574;2023-08-12T10:49:10;30.00;63.10
3348;DHT22;1687;49.540;8.574;2023-08-12T10:51:47;30.00;63.30
3348;DHT22;1687;49.540;8.574;2023-08-12T10:57:07;29.80;63.70
3348;DHT22;1687;49.540;8.574;2023-08-12T11:02:32;29.60;64.20
3348;DHT22;1687;49.540;8.574;2023-08-12T11:05:02;29.60;64.20
3348;DHT22;1687;49.540;8.574;2023-08-12T11:07:46;29.50;64.30
3348;DHT22;1687;49.540;8.574;2023-08-12T11:10:18;29.30;64.30
3348;DHT22;1687;49.540;8.574;2023-08-12T11:15:28;28.70;64.50
3348;DHT22;1687;49.540;8.574;2023-08-12T11:18:06;28.50;64.90
3348;DHT22;1687;49.540;8.574;2023-08-12T11:20:33;28.20;65.30
3348;DHT22;1687;49.540;8.574;2023-08-12T11:23:06;27.90;65.10
3348;DHT22;1687;49.540;8.574;2023-08-12T11:25:33;27.30;66.10
3348;DHT22;1687;49.540;8.574;2023-08-12T11:28:00;27.00;66.70
3348;DHT22;1687;49.540;8.574;2023-08-12T11:30:26;26.40;67.00
3348;DHT22;1687;49.540;8.574;2023-08-12T11:32:54;25.70;67.60
3348;DHT22;1687;49.540;8.574;2023-08-12T11:35:22;24.60;68.40
3348;DHT22;1687;49.540;8.574;2023-08-12T11:37:50;23.80;70.50
3348;DHT22;1687;49.540;8.574;2023-08-12T11:47:34;22.60;74.00
3348;DHT22;1687;49.540;8.574;2023-08-12T11:50:11;22.30;75.10
3348;DHT22;1687;49.540;8.574;2023-08-12T11:52:38;22.10;76.20
3348;DHT22;1687;49.540;8.574;2023-08-12T11:55:07;22.00;77.20
3348;DHT22;1687;49.540;8.574;2023-08-12T11:57:33;22.20;78.50
3348;DHT22;1687;49.540;8.574;2023-08-12T12:00:06;22.30;78.70
3348;DHT22;1687;49.540;8.574;2023-08-12T12:02:49;22.30;78.90
3348;DHT22;1687;49.540;8.574;2023-08-12T12:05:17;22.30;79.40
3348;DHT22;1687;49.540;8.574;2023-08-12T12:07:43;22.30;79.90
3348;DHT22;1687;49.540;8.574;2023-08-12T12:10:34;22.30;80.10
3348;DHT22;1687;49.540;8.574;2023-08-12T12:13:00;22.20;80.10
3348;DHT22;1687;49.540;8.574;2023-08-12T12:15:26;22.20;81.30
3348;DHT22;1687;49.540;8.574;2023-08-12T12:17:52;22.40;81.80
3348;DHT22;1687;49.540;8.574;2023-08-12T12:20:18;22.50;82.40
3348;DHT22;1687;49.540;8.574;2023-08-12T12:22:46;22.50;82.70
3348;DHT22;1687;49.540;8.574;2023-08-12T12:25:14;22.50;83.30
3348;DHT22;1687;49.540;8.574;2023-08-12T12:27:42;22.70;84.40
3348;DHT22;1687;49.540;8.574;2023-08-12T12:30:10;23.00;85.10
3348;DHT22;1687;49.540;8.574;2023-08-12T12:32:37;23.30;86.40
3348;DHT22;1687;49.540;8.574;2023-08-12T12:35:04;23.60;87.10
3348;DHT22;1687;49.540;8.574;2023-08-12T12:37:32;23.80;89.00
3348;DHT22;1687;49.540;8.574;2023-08-12T12:39:58;24.10;90.50
3348;DHT22;1687;49.540;8.574;2023-08-12T12:42:24;24.30;91.70
3348;DHT22;1687;49.540;8.574;2023-08-12T12:44:49;24.30;93.10
3348;DHT22;1687;49.540;8.574;2023-08-12T12:47:16;24.10;94.60
3348;DHT22;1687;49.540;8.574;2023-08-12T12:49:42;24.20;96.60
3348;DHT22;1687;49.540;8.574;2023-08-12T12:52:08;24.20;97.70
3348;DHT22;1687;49.540;8.574;2023-08-12T12:54:33;24.30;98.70
3348;DHT22;1687;49.540;8.574;2023-08-12T12:56:59;24.30;99.00
3348;DHT22;1687;49.540;8.574;2023-08-12T12:59:25;24.30;99.90
3348;DHT22;1687;49.540;8.574;2023-08-12T13:01:51;24.40;99.90
3348;DHT22;1687;49.540;8.574;2023-08-12T13:04:16;24.40;99.90
3348;DHT22;1687;49.540;8.574;2023-08-12T13:06:42;24.60;99.90
3348;DHT22;1687;49.540;8.574;2023-08-12T13:09:08;24.60;99.90
3348;DHT22;1687;49.540;8.574;2023-08-12T13:11:34;24.50;99.90
3348;DHT22;1687;49.540;8.574;2023-08-12T13:14:01;24.50;99.90
3348;DHT22;1687;49.540;8.574;2023-08-12T13:16:27;24.40;99.90
3348;DHT22;1687;49.540;8.574;2023-08-12T13:18:53;24.40;99.90
3348;DHT22;1687;49.540;8.574;2023-08-12T13:21:18;24.60;99.90
3348;DHT22;1687;49.540;8.574;2023-08-12T13:23:44;25.00;99.90
3348;DHT22;1687;49.540;8.574;2023-08-12T13:26:10;25.30;99.90
3348;DHT22;1687;49.540;8.574;2023-08-12T13:28:35;25.50;99.90
3348;DHT22;1687;49.540;8.574;2023-08-12T13:31:01;25.60;99.90
3348;DHT22;1687;49.540;8.574;2023-08-12T13:33:27;25.50;99.90
3348;DHT22;1687;49.540;8.574;2023-08-12T13:35:53;25.50;99.90
3348;DHT22;1687;49.540;8.574;2023-08-12T13:38:19;25.60;99.90
3348;DHT22;1687;49.540;8.574;2023-08-12T13:40:45;25.80;99.90
3348;DHT22;1687;49.540;8.574;2023-08-12T13:43:11;26.20;99.90
3348;DHT22;1687;49.540;8.574;2023-08-12T13:45:37;26.40;99.90
3348;DHT22;1687;49.540;8.574;2023-08-12T13:48:03;26.50;99.90
3348;DHT22;1687;49.540;8.574;2023-08-12T13:50:29;26.40;99.90
3348;DHT22;1687;49.540;8.574;2023-08-12T13:52:58;26.30;99.90
3348;DHT22;1687;49.540;8.574;2023-08-12T13:55:24;26.30;99.90
3348;DHT22;1687;49.540;8.574;2023-08-12T13:57:50;26.30;99.90
3348;DHT22;1687;49.540;8.574;2023-08-12T14:00:17;26.30;99.90
3348;DHT22;1687;49.540;8.574;2023-08-12T14:02:42;26.40;99.90
3348;DHT22;1687;49.540;8.574;2023-08-12T14:05:09;26.40;99.90
3348;DHT22;1687;49.540;8.574;2023-08-12T14:07:35;26.40;99.90
3348;DHT22;1687;49.540;8.574;2023-08-12T14:10:02;26.40;99.90
3348;DHT22;1687;49.540;8.574;2023-08-12T14:12:28;26.50;99.90
3348;DHT22;1687;49.540;8.574;2023-08-12T14:14:53;26.80;99.90
3348;DHT22;1687;49.540;8.574;2023-08-12T14:17:19;27.00;99.90
3348;DHT22;1687;49.540;8.574;2023-08-12T14:19:49;27.10;99.90
3348;DHT22;1687;49.540;8.574;2023-08-12T14:22:15;27.10;99.90
3348;DHT22;1687;49.540;8.574;2023-08-12T14:24:40;27.10;99.90
3348;DHT22;1687;49.540;8.574;2023-08-12T14:27:06;27.20;99.90
3348;DHT22;1687;49.540;8.574;2023-08-12T14:29:32;27.30;99.90
3348;DHT22;1687;49.540;8.574;2023-08-12T14:31:58;27.40;99.90
3348;DHT22;1687;49.540;8.574;2023-08-12T14:34:24;28.00;99.90
3348;DHT22;1687;49.540;8.574;2023-08-12T14:36:50;28.60;99.90
3348;DHT22;1687;49.540;8.574;2023-08-12T14:39:15;28.70;99.90
3348;DHT22;1687;49.540;8.574;2023-08-12T14:41:41;28.80;99.90
3348;DHT22;1687;49.540;8.574;2023-08-12T14:44:07;28.60;99.90
3348;DHT22;1687;49.540;8.574;2023-08-12T14:46:32;28.50;99.90
3348;DHT22;1687;49.540;8.574;2023-08-12T14:48:58;28.50;99.90
3348;DHT22;1687;49.540;8.574;2023-08-12T14:51:24;28.60;99.90
3348;DHT22;1687;49.540;8.574;2023-08-12T14:53:50;28.70;99.90
3348;DHT22;1687;49.540;8.574;2023-08-12T14:56:16;28.80;99.90
3348;DHT22;1687;49.540;8.574;2023-08-12T14:58:42;28.90;99.90
3348;DHT22;1687;49.540;8.574;2023-08-12T15:01:07;28.90;99.90
3348;DHT22;1687;49.540;8.574;2023-08-12T15:03:33;29.00;99.90
3348;DHT22;1687;49.540;8.574;2023-08-12T15:06:02;29.10;99.90
3348;DHT22;1687;49.540;8.574;2023-08-12T15:08:30;28.90;99.90
3348;DHT22;1687;49.540;8.574;2023-08-12T15:10:59;28.80;99.90
3348;DHT22;1687;49.540;8.574;2023-08-12T15:13:25;28.80;99.90
3348;DHT22;1687;49.540;8.574;2023-08-12T15:15:51;28.70;99.60
3348;DHT22;1687;49.540;8.574;2023-08-12T15:18:17;28.80;99.60
3348;DHT22;1687;49.540;8.574;2023-08-12T15:20:43;29.00;99.40
3348;DHT22;1687;49.540;8.574;2023-08-12T15:23:10;29.20;99.40
3348;DHT22;1687;49.540;8.574;2023-08-12T15:25:35;29.10;97.70
3348;DHT22;1687;49.540;8.574;2023-08-12T15:28:01;28.70;97.50
3348;DHT22;1687;49.540;8.574;2023-08-12T15:30:28;28.70;98.00
3348;DHT22;1687;49.540;8.574;2023-08-12T15:32:54;30.00;99.80
3348;DHT22;1687;49.540;8.574;2023-08-12T15:35:20;31.00;98.30
3348;DHT22;1687;49.540;8.574;2023-08-12T15:37:46;31.40;96.60
3348;DHT22;1687;49.540;8.574;2023-08-12T15:40:12;31.40;95.60
3348;DHT22;1687;49.540;8.574;2023-08-12T15:42:39;31.10;94.80
3348;DHT22;1687;49.540;8.574;2023-08-12T15:45:05;30.80;94.10
3348;DHT22;1687;49.540;8.574;2023-08-12T15:47:31;30.20;93.20
3348;DHT22;1687;49.540;8.574;2023-08-12T15:49:58;29.80;92.80
3348;DHT22;1687;49.540;8.574;2023-08-12T15:52:24;29.50;93.10
3348;DHT22;1687;49.540;8.574;2023-08-12T15:54:50;29.20;93.30
3348;DHT22;1687;49.540;8.574;2023-08-12T15:57:15;29.00;93.30
3348;DHT22;1687;49.540;8.574;2023-08-12T15:59:41;28.70;92.80
3348;DHT22;1687;49.540;8.574;2023-08-12T16:02:08;28.50;93.30
3348;DHT22;1687;49.540;8.574;2023-08-12T16:04:34;28.40;93.40
3348;DHT22;1687;49.540;8.574;2023-08-12T16:07:00;28.30;93.00
3348;DHT22;1687;49.540;8.574;2023-08-12T16:09:25;28.10;92.80
3348;DHT22;1687;49.540;8.574;2023-08-12T16:11:51;27.80;93.00
3348;DHT22;1687;49.540;8.574;2023-08-12T16:14:17;27.80;93.60
3348;DHT22;1687;49.540;8.574;2023-08-12T16:16:42;27.80;93.70
3348;DHT22;1687;49.540;8.574;2023-08-12T16:19:08;27.70;93.70
3348;DHT22;1687;49.540;8.574;2023-08-12T16:21:34;27.60;93.70